MUCF/CFG METAR and TAF weather

Enter ICAO airport designator
Station Type Date Time Source
MUCF METAR 2019/06/27 07:59 UTC NOAA

MUCF 270759Z AUTO 06005KT 25/23 Q1016


Station Type Date Time Source
MUCF Decoded METAR 2019/06/27 07:59 UTC NOAA

Cienfuegos, Las Villas, Cuba (MUCF) 22-09N 080-24W 39M
Jun 27, 2019 - 03:59 AM EDT / 2019.06.27 0759 UTC
Wind: from the ENE (060 degrees) at 6 MPH (5 KT):0
Temperature: 77 F (25 C)
Dew Point: 73 F (23 C)
Relative Humidity: 88%
Pressure (altimeter): 30.00 in. Hg (1016 hPa)
ob: MUCF 270759Z AUTO 06005KT 25/23 Q1016
cycle: 8

Station Type Date Time Source
MUCF TAF 2019/06/26 18:03 UTC NOAA

MUCF 261700Z 2618/2706 09007KT 9000 SCT020
TEMPO 2620/2624 5000 TSRA FEW018CB BKN020
BECMG 2701/2703 VRB03KT FEW020

Example: see airport list